Time;durP1;ratioP1;P1;durP2;ratioP2;P2;SDS_P1;SDS_P2;PMS_P1;PMS_P2;Temp;Humidity;BMP_temperature;BMP_pressure;BME280_temperature;BME280_humidity;BME280_pressure;Samples;Min_cycle;Max_cycle;Signal;HPM_P1;HPM_P2
2022/12/28 00:01:33;;;;;;;82.25;75.92;;;;;;;2.93;92.27;100942.64;1702413;84;25635;-56
2022/12/28 00:04:07;;;;;;;83.05;77.03;;;;;;;2.93;92.27;100942.64;1676546;84;26025;-55
2022/12/28 00:06:33;;;;;;;81.42;75.52;;;;;;;2.94;92.45;100954.93;1702465;84;25651;-56
2022/12/28 00:09:02;;;;;;;82.27;76.47;;;;;;;2.94;92.40;100954.39;1702400;83;27411;-56
2022/12/28 00:11:29;;;;;;;83.15;76.67;;;;;;;2.94;92.45;100940.23;1702415;84;25414;-55
2022/12/28 00:13:59;;;;;;;83.47;76.92;;;;;;;2.95;92.40;100945.87;1674032;84;25423;-52
2022/12/28 00:16:31;;;;;;;84.50;78.10;;;;;;;2.94;92.18;100953.06;1702377;84;25575;-55
2022/12/28 00:19:03;;;;;;;85.30;78.65;;;;;;;2.95;92.45;100949.34;1702425;84;25631;-54
2022/12/28 00:21:32;;;;;;;84.52;77.92;;;;;;;2.95;92.02;100955.23;1698751;83;27343;-55
2022/12/28 00:24:02;;;;;;;84.20;77.58;;;;;;;2.94;92.12;100953.06;1697645;84;25421;-53
2022/12/28 00:26:33;;;;;;;84.58;78.30;;;;;;;2.95;92.24;100963.25;1697597;84;25402;-56
2022/12/28 00:29:02;;;;;;;84.65;78.22;;;;;;;2.95;92.20;100959.23;1697543;84;25596;-54
2022/12/28 00:31:28;;;;;;;83.50;77.25;;;;;;;2.96;92.47;100963.52;1673570;84;25481;-54
2022/12/28 00:33:56;;;;;;;85.25;78.42;;;;;;;2.95;92.22;100960.58;1697543;84;27327;-51
2022/12/28 00:36:24;;;;;;;81.30;75.22;;;;;;;2.94;92.41;100963.75;1697503;83;25472;-53
2022/12/28 00:38:52;;;;;;;85.25;78.65;;;;;;;2.94;92.35;100957.60;1697467;84;25462;-52
2022/12/28 00:41:20;;;;;;;81.97;75.97;;;;;;;2.93;92.33;100962.14;1697620;84;25432;-55
2022/12/28 00:43:47;;;;;;;84.20;77.92;;;;;;;2.93;92.40;100968.83;1696874;84;25398;-53
2022/12/28 00:46:13;;;;;;;83.30;77.20;;;;;;;2.94;92.57;100970.43;1696109;84;27824;-54
2022/12/28 00:48:42;;;;;;;85.42;79.10;;;;;;;2.93;92.55;100974.70;1696866;84;25404;-55
2022/12/28 00:51:18;;;;;;;86.40;79.20;;;;;;;2.93;92.54;100978.72;1697705;83;25560;-52
2022/12/28 00:53:46;;;;;;;82.97;76.87;;;;;;;2.93;92.68;100976.05;1697605;83;25622;-54
2022/12/28 00:56:17;;;;;;;85.90;79.62;;;;;;;2.93;92.68;100978.72;1697579;84;25568;-54
2022/12/28 00:58:46;;;;;;;83.52;77.40;;;;;;;2.92;92.63;100979.22;1697538;84;27729;-53
2022/12/28 01:01:18;;;;;;;84.60;78.65;;;;;;;2.92;92.60;100973.08;1697416;84;25804;-53
2022/12/28 01:03:46;;;;;;;82.25;75.05;;;;;;;2.92;92.69;100974.41;1697407;84;25518;-55
2022/12/28 01:06:18;;;;;;;84.32;78.20;;;;;;;2.92;92.40;100977.89;1697467;84;25368;-56
2022/12/28 01:08:44;;;;;;;83.85;77.60;;;;;;;2.91;92.73;100981.63;1697539;84;25548;-55
2022/12/28 01:11:18;;;;;;;82.78;76.87;;;;;;;2.92;92.77;100983.77;1697533;84;27360;-57
2022/12/28 01:13:48;;;;;;;84.65;78.22;;;;;;;2.91;92.69;100981.63;1697435;84;25392;-53
2022/12/28 01:16:20;;;;;;;85.03;78.02;;;;;;;2.92;92.73;100983.77;1697523;84;25389;-54
2022/12/28 01:18:52;;;;;;;84.50;78.07;;;;;;;2.92;92.67;100978.42;1673080;84;25589;-53
2022/12/28 01:21:23;;;;;;;86.28;79.92;;;;;;;2.92;92.60;100981.89;1651214;85;25687;-55
2022/12/28 01:23:55;;;;;;;83.05;76.22;;;;;;;2.91;92.76;100969.60;1699512;84;29550;-56
2022/12/28 01:26:24;;;;;;;86.25;79.65;;;;;;;2.91;92.67;100975.45;1699571;84;25620;-56
2022/12/28 01:28:54;;;;;;;84.32;78.12;;;;;;;2.92;92.83;100972.54;1699649;84;25654;-57
2022/12/28 01:31:22;;;;;;;86.15;79.72;;;;;;;2.92;92.75;100963.72;1699656;84;33006;-56
2022/12/28 01:33:51;;;;;;;85.00;78.78;;;;;;;2.90;92.60;100959.95;1699655;84;25611;-55
2022/12/28 01:36:23;;;;;;;84.60;78.35;;;;;;;2.91;92.52;100956.74;1699710;84;32810;-56
2022/12/28 01:38:55;;;;;;;83.55;77.32;;;;;;;2.88;92.46;100955.37;1687028;84;25711;-57
2022/12/28 01:41:25;;;;;;;84.25;77.97;;;;;;;2.87;92.49;100962.30;1699569;84;25422;-56
2022/12/28 01:43:57;;;;;;;82.78;76.55;;;;;;;2.86;92.60;100956.66;1699463;84;25422;-54
2022/12/28 01:46:39;;;;;;;84.40;78.17;;;;;;;2.85;92.56;100953.19;1699532;84;25454;-53
2022/12/28 01:49:29;;;;;;;82.95;76.92;;;;;;;2.79;92.21;100950.95;1699579;84;27329;-56
2022/12/28 01:52:34;;;;;;;82.20;76.00;;;;;;;2.79;92.37;100958.14;1671567;84;25659;-57
2022/12/28 01:55:15;;;;;;;83.40;76.77;;;;;;;2.74;92.24;100956.21;1698494;84;25618;-58
2022/12/28 01:57:47;;;;;;;82.33;76.28;;;;;;;2.72;92.42;100958.29;1699623;84;25980;-57
2022/12/28 02:00:17;;;;;;;82.92;76.80;;;;;;;2.70;92.36;100963.07;1698174;84;25467;-57
2022/12/28 02:03:07;;;;;;;83.82;77.62;;;;;;;2.69;92.26;100963.30;1699728;84;27340;-57
2022/12/28 02:05:41;;;;;;;82.20;76.15;;;;;;;2.68;92.50;100974.52;1699653;84;25841;-57
2022/12/28 02:08:24;;;;;;;82.35;76.37;;;;;;;2.67;92.23;100968.88;1699713;84;25628;-57
2022/12/28 02:10:54;;;;;;;85.72;79.07;;;;;;;2.66;92.38;100967.81;1698725;84;26209;-57
2022/12/28 02:13:24;;;;;;;;;;;;;;;2.64;92.26;100961.38;1702213;84;25638;-56
2022/12/28 02:15:51;;;;;;;;;;;;;;;2.65;92.35;100964.84;1702253;84;27450;-54
2022/12/28 02:18:21;;;;;;;82.78;76.57;;;;;;;2.63;92.35;100957.07;1699544;84;25584;-55
2022/12/28 02:21:21;;;;;;;83.30;77.08;;;;;;;2.61;92.51;100953.83;1671495;84;25651;-55
2022/12/28 02:24:32;;;;;;;85.60;79.20;;;;;;;2.63;92.65;100957.60;1699810;84;25580;-58
2022/12/28 02:27:37;;;;;;;83.87;77.42;;;;;;;2.63;92.64;100953.59;1699681;84;25470;-57
2022/12/28 02:30:11;;;;;;;80.77;74.85;;;;;;;2.63;92.74;100948.25;1699598;84;27390;-57
2022/12/28 02:32:58;;;;;;;83.22;76.92;;;;;;;2.63;92.83;100937.04;1699630;84;25644;-57
2022/12/28 02:35:53;;;;;;;82.22;76.00;;;;;;;2.62;92.49;100942.08;1667579;85;25504;-57
2022/12/28 02:38:41;;;;;;;81.92;75.90;;;;;;;2.61;92.68;100941.81;1674774;84;25551;-58
2022/12/28 02:41:16;;;;;;;84.90;78.47;;;;;;;2.59;92.62;100940.72;1698898;84;25416;-57
2022/12/28 02:43:45;;;;;;;52.38;48.25;;;;;;;2.59;92.60;100943.39;1699143;84;27345;-57
2022/12/28 02:52:46;;;;;;;83.10;76.72;;;;;;;2.53;92.40;100940.33;1699682;84;25388;-56
2022/12/28 02:59:00;;;;;;;16.12;6.67;;;;;;;2.49;92.58;100938.39;1699632;84;27349;-57
2022/12/28 03:01:45;;;;;;;81.92;75.85;;;;;;;2.47;92.62;100931.13;1699677;84;25479;-58
2022/12/28 03:04:47;;;;;;;82.82;76.67;;;;;;;2.43;92.58;100929.45;1699697;84;25541;-55
2022/12/28 03:10:33;;;;;;;84.03;77.47;;;;;;;2.36;92.49;100936.80;1628276;87;25566;-58
2022/12/28 03:16:02;;;;;;;87.75;81.35;;;;;;;2.29;92.56;100940.14;1571628;91;25635;-58
2022/12/28 03:32:52;;;;;;;23.47;20.97;;;;;;;2.02;92.85;100929.47;1570375;91;25712;-57
2022/12/28 03:35:23;;;;;;;85.07;78.00;;;;;;;1.99;92.80;100931.30;1571725;91;25724;-57
2022/12/28 03:37:55;;;;;;;86.63;79.82;;;;;;;1.93;92.81;100934.10;1571871;91;25570;-57
2022/12/28 03:40:48;;;;;;;82.72;76.62;;;;;;;1.91;93.05;100937.00;1641338;83;27418;-57
2022/12/28 03:43:41;;;;;;;82.55;76.20;;;;;;;1.88;93.01;100936.13;1726870;82;25759;-57
2022/12/28 03:46:23;;;;;;;87.02;80.57;;;;;;;1.81;93.07;100921.59;1726972;82;25627;-55
2022/12/28 03:48:53;;;;;;;14.65;7.45;;;;;;;1.80;93.25;100927.16;1725137;83;25474;-56
2022/12/28 03:51:23;;;;;;;10.88;6.08;;;;;;;1.75;93.36;100927.05;1724293;83;25733;-55
2022/12/28 03:53:51;;;;;;;12.43;6.35;;;;;;;1.71;93.29;100931.23;1696388;84;28305;-54
2022/12/28 03:56:23;;;;;;;13.03;6.62;;;;;;;1.66;93.40;100920.73;1696220;84;25806;-55
2022/12/28 03:58:52;;;;;;;14.85;6.40;;;;;;;1.61;93.37;100917.16;1696346;84;25644;-56
2022/12/28 04:01:21;;;;;;;18.15;7.60;;;;;;;1.56;93.51;100917.84;1696442;84;26057;-56
2022/12/28 04:03:50;;;;;;;13.20;6.45;;;;;;;1.50;93.52;100918.80;1696363;84;25583;-56
2022/12/28 04:06:20;;;;;;;16.87;6.47;;;;;;;1.45;93.46;100912.02;1696453;84;27363;-53
2022/12/28 04:08:48;;;;;;;13.68;6.83;;;;;;;1.38;93.62;100896.14;1696282;84;25638;-54
2022/12/28 04:11:14;;;;;;;17.92;8.05;;;;;;;1.34;93.80;100880.30;1682133;84;25615;-54
2022/12/28 04:13:40;;;;;;;16.10;7.40;;;;;;;1.29;93.75;100885.02;1726753;82;25579;-57
2022/12/28 04:16:12;;;;;;;16.95;7.30;;;;;;;1.25;93.85;100874.52;1723511;83;25394;-54
2022/12/28 04:18:42;;;;;;;16.07;7.37;;;;;;;1.19;93.88;100871.47;1723566;83;27407;-57
2022/12/28 04:21:12;;;;;;;15.30;7.08;;;;;;;1.13;94.04;100877.71;1723413;83;25577;-53
2022/12/28 04:23:41;;;;;;;19.30;7.10;;;;;;;1.10;94.21;100875.50;1723575;83;25463;-56
2022/12/28 04:26:12;;;;;;;15.00;6.37;;;;;;;1.05;94.28;100873.52;1723627;83;25457;-56
2022/12/28 04:28:41;;;;;;;16.70;7.60;;;;;;;1.00;94.40;100872.08;1723654;83;25466;-55
2022/12/28 04:31:11;;;;;;;;;;;;;;;0.95;94.55;100869.30;1726086;83;27393;-57
2022/12/28 04:33:39;;;;;;;;;;;;;;;0.91;94.54;100869.47;1726034;83;25627;-58
2022/12/28 04:36:15;;;;;;;14.75;6.53;;;;;;;0.86;94.70;100881.34;1724050;83;25566;-58
2022/12/28 04:38:43;;;;;;;18.27;7.72;;;;;;;0.81;95.06;100875.36;1723522;83;25592;-57
2022/12/28 04:41:13;;;;;;;14.75;6.80;;;;;;;0.80;95.22;100876.92;1723515;83;25555;-56
2022/12/28 04:43:39;;;;;;;13.32;7.08;;;;;;;0.77;95.39;100882.20;1723520;83;27428;-58
2022/12/28 04:46:10;;;;;;;14.63;7.47;;;;;;;0.74;95.30;100882.13;1723432;83;25659;-56
2022/12/28 04:48:36;;;;;;;14.53;7.65;;;;;;;0.70;95.39;100887.63;1691911;83;25429;-57
2022/12/28 04:51:20;;;;;;;19.87;9.00;;;;;;;0.69;95.12;100886.52;1688615;83;25411;-58
2022/12/28 04:53:50;;;;;;;16.25;7.03;;;;;;;0.65;95.25;100888.83;1723567;83;25571;-56
2022/12/28 04:56:19;;;;;;;;;;;;;;;0.63;95.23;100882.92;1726093;83;29492;-56
2022/12/28 04:58:50;;;;;;;11.83;6.60;;;;;;;0.60;95.28;100889.23;1693060;84;25512;-58
2022/12/28 05:01:20;;;;;;;14.25;7.25;;;;;;;0.55;95.42;100890.70;1694869;83;25495;-56
2022/12/28 05:03:52;;;;;;;14.75;6.45;;;;;;;0.50;95.46;100890.58;1723484;83;25418;-57
2022/12/28 05:06:22;;;;;;;20.82;7.58;;;;;;;0.46;95.22;100889.92;1723593;83;25594;-57
2022/12/28 05:08:51;;;;;;;16.12;8.05;;;;;;;0.44;95.48;100894.13;1723578;83;27411;-57
2022/12/28 05:11:23;;;;;;;12.05;7.10;;;;;;;0.41;95.66;100893.78;1723554;83;34788;-57
2022/12/28 05:13:51;;;;;;;16.87;7.62;;;;;;;0.35;95.37;100894.17;1689098;83;25518;-57
2022/12/28 05:16:22;;;;;;;17.27;7.30;;;;;;;0.31;95.50;100887.69;1723384;83;27419;-57
2022/12/28 05:18:50;;;;;;;17.10;7.30;;;;;;;0.29;95.64;100883.09;1723555;83;25467;-57
2022/12/28 05:21:22;;;;;;;22.93;8.38;;;;;;;0.25;95.91;100890.72;1723495;83;27460;-57
2022/12/28 05:23:52;;;;;;;15.85;8.05;;;;;;;0.20;95.94;100867.97;1723572;83;25784;-57
2022/12/28 05:26:24;;;;;;;16.45;7.58;;;;;;;0.18;95.99;100882.02;1723534;83;25558;-56
2022/12/28 05:28:53;;;;;;;12.35;7.53;;;;;;;0.13;95.98;100882.69;1723577;83;25575;-58
2022/12/28 05:31:23;;;;;;;14.23;7.53;;;;;;;0.05;95.93;100867.55;1723676;83;25536;-57
2022/12/28 05:33:53;;;;;;;12.50;7.15;;;;;;;0.05;95.93;100867.55;1723519;83;26963;-57
2022/12/28 05:36:22;;;;;;;;;;;;;;;0.03;96.07;100865.12;1725990;83;25413;-57
2022/12/28 05:38:51;;;;;;;;;;;;;;;-0.02;96.16;100862.32;1726053;83;25474;-57
2022/12/28 05:41:23;;;;;;;6.92;4.12;;;;;;;-0.06;96.05;100863.81;1724151;83;25614;-56
2022/12/28 05:43:55;;;;;;;18.10;7.33;;;;;;;-0.12;95.95;100862.04;1723556;83;25667;-55
2022/12/28 05:46:26;;;;;;;18.55;7.95;;;;;;;-0.15;96.29;100859.82;1723505;83;28241;-58
2022/12/28 05:48:55;;;;;;;19.80;7.92;;;;;;;-0.20;96.23;100855.20;1723544;83;25639;-57
2022/12/28 05:51:27;;;;;;;18.62;7.53;;;;;;;-0.25;96.24;100857.72;1723472;83;25580;-58
2022/12/28 05:53:57;;;;;;;15.98;7.75;;;;;;;-0.31;96.28;100852.75;1723450;83;25443;-57
2022/12/28 05:56:29;;;;;;;16.65;7.45;;;;;;;-0.33;96.57;100860.14;1723556;83;25481;-58
2022/12/28 05:59:00;;;;;;;17.35;7.12;;;;;;;-0.36;96.88;100853.13;1723522;83;27487;-58
2022/12/28 06:01:32;;;;;;;19.45;8.33;;;;;;;-0.41;97.05;100841.83;1723385;83;25757;-58
2022/12/28 06:04:04;;;;;;;16.20;7.67;;;;;;;-0.44;97.37;100844.95;1723546;83;25632;-58
2022/12/28 06:06:34;;;;;;;17.27;7.67;;;;;;;-0.47;97.19;100848.05;1723602;83;25558;-57
2022/12/28 06:09:04;;;;;;;18.20;8.05;;;;;;;-0.52;97.09;100850.03;1723566;83;25454;-57
2022/12/28 06:11:32;;;;;;;15.98;8.63;;;;;;;-0.54;97.34;100856.09;1723598;83;27401;-55
2022/12/28 06:14:04;;;;;;;18.17;7.87;;;;;;;-0.58;97.42;100858.38;1723403;83;25667;-57
2022/12/28 06:16:35;;;;;;;15.00;7.95;;;;;;;-0.63;97.42;100862.71;1723317;83;25417;-58
2022/12/28 06:19:10;;;;;;;18.98;7.53;;;;;;;-0.65;97.34;100867.44;1721893;83;25407;-57
2022/12/28 06:21:40;;;;;;;18.25;8.55;;;;;;;-0.66;97.83;100869.82;1723573;83;25575;-57
2022/12/28 06:24:12;;;;;;;17.35;8.58;;;;;;;-0.68;97.88;100862.56;1689282;83;27284;-56
2022/12/28 06:26:41;;;;;;;18.30;8.53;;;;;;;-0.71;97.83;100857.72;1723460;83;25434;-57
2022/12/28 06:29:07;;;;;;;17.35;8.33;;;;;;;-0.73;98.08;100850.45;1723462;83;25616;-58
2022/12/28 06:31:39;;;;;;;18.70;8.95;;;;;;;-0.76;98.37;100857.03;1723456;83;25470;-58
2022/12/28 06:34:09;;;;;;;18.25;8.68;;;;;;;-0.79;98.13;100858.27;1723565;83;25575;-57
2022/12/28 06:36:41;;;;;;;20.43;9.43;;;;;;;-0.81;98.16;100852.89;1723545;83;28003;-57
2022/12/28 06:39:13;;;;;;;18.77;9.68;;;;;;;-0.84;98.23;100863.43;1723125;83;25892;-57
2022/12/28 06:41:43;;;;;;;15.65;8.68;;;;;;;-0.86;98.54;100860.19;1723675;83;25583;-57
2022/12/28 06:44:14;;;;;;;13.72;7.15;;;;;;;-0.86;98.53;100858.05;1723595;83;25623;-57
2022/12/28 06:46:41;;;;;;;17.95;9.73;;;;;;;-0.91;98.68;100849.41;1689794;83;25515;-55
2022/12/28 06:49:07;;;;;;;14.70;9.05;;;;;;;-0.93;98.79;100844.03;1723578;83;28133;-56
2022/12/28 06:51:39;;;;;;;18.98;9.13;;;;;;;-0.93;98.87;100840.05;1723488;83;25579;-57
2022/12/28 06:54:10;;;;;;;24.27;10.00;;;;;;;-0.95;99.06;100844.25;1723627;83;25623;-57
2022/12/28 06:56:39;;;;;;;21.48;9.85;;;;;;;-0.96;99.47;100839.43;1723640;83;25579;-57
2022/12/28 06:59:08;;;;;;;23.52;10.88;;;;;;;-0.97;99.46;100837.83;1692966;83;30533;-58
2022/12/28 07:01:38;;;;;;;;;;;;;;;-0.98;99.52;100839.37;1726173;83;27455;-57
2022/12/28 07:04:09;;;;;;;20.37;9.95;;;;;;;-0.98;99.61;100840.70;1693132;84;26056;-56
2022/12/28 07:06:40;;;;;;;23.85;10.35;;;;;;;-1.00;99.76;100839.58;1724160;83;25618;-60
2022/12/28 07:09:15;;;;;;;25.10;10.72;;;;;;;-0.97;99.80;100838.31;1723592;83;25575;-56
2022/12/28 07:11:44;;;;;;;23.12;10.23;;;;;;;-0.98;99.85;100826.09;1723679;83;25561;-56
2022/12/28 07:14:12;;;;;;;26.00;10.28;;;;;;;-0.95;100.00;100834.95;1723633;83;27349;-56
2022/12/28 07:16:42;;;;;;;20.25;10.70;;;;;;;-0.94;100.00;100828.59;1723441;83;25387;-55
2022/12/28 07:19:08;;;;;;;20.08;10.25;;;;;;;-0.90;100.00;100830.29;1723712;83;25396;-56
2022/12/28 07:21:38;;;;;;;21.85;11.53;;;;;;;-0.91;100.00;100822.05;1723552;83;25489;-57
2022/12/28 07:24:09;;;;;;;18.48;9.78;;;;;;;-0.87;100.00;100825.88;1723614;83;25407;-57
2022/12/28 07:26:38;;;;;;;25.50;11.48;;;;;;;-0.85;100.00;100819.33;1669625;83;27326;-55
2022/12/28 07:29:08;;;;;;;;;;;;;;;-0.84;100.00;100810.83;1726133;83;25388;-57
2022/12/28 07:31:39;;;;;;;19.90;10.68;;;;;;;-0.81;100.00;100814.38;1723611;83;25619;-56
2022/12/28 07:34:05;;;;;;;20.00;9.95;;;;;;;-0.78;100.00;100801.98;1723599;83;25444;-57
2022/12/28 07:36:33;;;;;;;22.50;10.85;;;;;;;-0.74;100.00;100807.14;1723559;83;25609;-56
2022/12/28 07:39:02;;;;;;;28.85;11.18;;;;;;;-0.71;100.00;100797.41;1723586;83;27341;-58
2022/12/28 07:41:32;;;;;;;21.48;11.20;;;;;;;-0.67;100.00;100804.42;1723666;83;25470;-56
2022/12/28 07:44:02;;;;;;;22.27;10.93;;;;;;;-0.62;100.00;100808.02;1723614;83;25409;-58
2022/12/28 07:46:32;;;;;;;;;;;;;;;-0.58;100.00;100807.06;1695533;83;25644;-56
2022/12/28 07:48:59;;;;;;;18.62;9.45;;;;;;;-0.51;100.00;100803.00;1723692;83;25554;-57
2022/12/28 07:51:35;;;;;;;28.30;11.45;;;;;;;-0.44;100.00;100803.75;1723605;83;27334;-58
2022/12/28 07:54:04;;;;;;;25.00;11.90;;;;;;;-0.39;100.00;100795.40;1723118;83;25583;-58
2022/12/28 07:56:34;;;;;;;21.12;11.05;;;;;;;-0.35;100.00;100794.42;1723564;83;25618;-59
2022/12/28 07:59:05;;;;;;;22.80;10.85;;;;;;;-0.30;100.00;100787.92;1723488;83;25480;-58
2022/12/28 08:01:36;;;;;;;25.57;10.43;;;;;;;-0.25;100.00;100785.93;1723632;83;25578;-58
2022/12/28 08:04:08;;;;;;;24.63;10.82;;;;;;;-0.16;100.00;100789.08;1723520;83;27343;-57
2022/12/28 08:06:40;;;;;;;22.52;11.30;;;;;;;-0.13;100.00;100792.09;1723468;83;27250;-57
2022/12/28 08:09:12;;;;;;;22.73;11.68;;;;;;;-0.07;100.00;100792.53;1723621;83;25646;-56
2022/12/28 08:11:44;;;;;;;21.52;11.22;;;;;;;-0.01;100.00;100790.81;1723544;83;25879;-57
2022/12/28 08:14:13;;;;;;;25.55;10.40;;;;;;;0.01;100.00;100791.39;1689816;83;25533;-58
2022/12/28 08:16:43;;;;;;;18.70;10.43;;;;;;;0.03;100.00;100789.84;1692786;83;27762;-58
2022/12/28 08:19:13;;;;;;;24.15;10.93;;;;;;;0.04;100.00;100794.94;1723462;83;25470;-58
2022/12/28 08:21:43;;;;;;;;;;;;;;;0.07;100.00;100798.48;1726108;83;25383;-58
2022/12/28 08:24:17;;;;;;;23.80;10.93;;;;;;;0.08;100.00;100797.42;1722614;83;25457;-58
2022/12/28 08:26:47;;;;;;;18.75;9.83;;;;;;;0.08;100.00;100795.29;1723631;83;25577;-57
2022/12/28 08:29:19;;;;;;;17.42;10.23;;;;;;;0.08;100.00;100796.09;1723559;83;27330;-58
2022/12/28 08:31:49;;;;;;;21.87;9.48;;;;;;;0.14;100.00;100807.16;1723499;83;25809;-57
2022/12/28 08:34:25;;;;;;;28.02;10.08;;;;;;;0.31;100.00;100805.20;1723569;83;25563;-57
2022/12/28 08:36:55;;;;;;;30.90;11.90;;;;;;;0.47;100.00;100791.73;1688608;83;25684;-56
2022/12/28 08:39:21;;;;;;;17.82;10.03;;;;;;;0.63;100.00;100788.41;1723508;83;25460;-57
2022/12/28 08:41:47;;;;;;;19.15;10.10;;;;;;;0.77;100.00;100784.16;1688601;83;27236;-62
2022/12/28 08:44:15;;;;;;;21.25;9.88;;;;;;;1.00;100.00;100791.35;1691522;83;25660;-62
2022/12/28 08:46:42;;;;;;;20.37;10.45;;;;;;;1.17;100.00;100783.45;1723498;83;25461;-62
2022/12/28 08:49:10;;;;;;;41.33;37.53;;;;;;;1.31;100.00;100784.81;1723515;83;25477;-62
2022/12/28 08:51:40;;;;;;;90.00;82.55;;;;;;;1.48;100.00;100784.88;1723614;83;25662;-62
2022/12/28 08:54:12;;;;;;;90.67;83.80;;;;;;;1.63;100.00;100787.05;1723561;83;27719;-62
2022/12/28 08:56:43;;;;;;;90.42;83.35;;;;;;;1.72;100.00;100782.98;1723552;83;25659;-62
2022/12/28 08:59:16;;;;;;;88.47;81.55;;;;;;;1.70;98.62;100789.05;1723609;83;25469;-62
2022/12/28 09:01:47;;;;;;;92.27;84.75;;;;;;;1.71;98.49;100792.55;1723612;83;25424;-61
2022/12/28 09:04:21;;;;;;;89.17;81.72;;;;;;;1.67;97.90;100788.22;1723553;83;25481;-63
2022/12/28 09:06:51;;;;;;;91.97;84.40;;;;;;;1.62;97.14;100790.78;1723644;83;27406;-67
2022/12/28 09:09:20;;;;;;;88.47;81.10;;;;;;;1.56;97.35;100785.85;1723499;83;25417;-65
2022/12/28 09:11:49;;;;;;;;;;;;;;;1.55;97.52;100782.92;1726126;83;25438;-64
2022/12/28 09:14:17;;;;;;;88.37;81.53;;;;;;;1.55;97.33;100790.09;1723675;83;25592;-63
2022/12/28 09:16:43;;;;;;;89.70;82.67;;;;;;;1.51;97.33;100780.42;1723335;82;25813;-61
2022/12/28 09:19:14;;;;;;;92.90;85.20;;;;;;;1.48;97.09;100787.05;1723455;83;27332;-63
2022/12/28 09:21:47;;;;;;;90.87;84.00;;;;;;;1.46;97.26;100773.66;1723425;83;25835;-67
2022/12/28 09:24:16;;;;;;;89.87;82.80;;;;;;;1.46;97.43;100777.16;1723548;83;25606;-62
2022/12/28 09:26:43;;;;;;;;;;;;;;;1.47;97.54;100777.42;1726030;83;25467;-62
2022/12/28 09:29:13;;;;;;;93.92;85.75;;;;;;;1.51;97.33;100780.95;1724045;83;25397;-62
2022/12/28 09:31:40;;;;;;;92.55;85.03;;;;;;;1.52;97.57;100775.39;1723662;83;27311;-64
2022/12/28 09:34:11;;;;;;;91.55;84.28;;;;;;;1.55;97.70;100768.25;1723451;83;25579;-65
2022/12/28 09:36:44;;;;;;;91.57;84.37;;;;;;;1.63;97.75;100768.38;1723556;83;25456;-64
2022/12/28 09:39:16;;;;;;;87.60;80.60;;;;;;;1.70;96.90;100757.05;1723466;83;25998;-65
2022/12/28 09:41:50;;;;;;;89.50;82.33;;;;;;;1.77;97.53;100749.73;1689744;83;25504;-64
2022/12/28 09:44:43;;;;;;;86.70;79.80;;;;;;;1.88;97.60;100752.58;1723535;83;27945;-64
2022/12/28 09:47:46;;;;;;;86.78;79.70;;;;;;;1.97;97.18;100741.26;1723490;83;25920;-66
2022/12/28 09:50:27;;;;;;;88.20;80.83;;;;;;;2.08;97.18;100740.93;1692920;83;25624;-65
2022/12/28 09:53:19;;;;;;;87.78;80.40;;;;;;;2.19;96.54;100729.35;1723334;83;25697;-65
2022/12/28 09:56:25;;;;;;;89.67;82.60;;;;;;;2.36;98.11;100745.37;1723624;83;25421;-65
2022/12/28 09:58:54;;;;;;;83.17;76.53;;;;;;;2.47;97.05;100729.52;1723607;83;27462;-66
2022/12/28 10:01:24;;;;;;;15.80;9.35;;;;;;;2.63;96.75;100730.03;1723441;83;27028;-65
2022/12/28 10:03:51;;;;;;;19.92;9.78;;;;;;;2.72;96.34;100722.41;1723591;83;25462;-63
2022/12/28 10:06:23;;;;;;;15.68;9.43;;;;;;;2.79;95.95;100720.36;1723498;83;25596;-64
2022/12/28 10:08:54;;;;;;;23.05;9.73;;;;;;;2.79;94.62;100717.19;1723074;83;25575;-65
2022/12/28 10:11:38;;;;;;;20.02;8.78;;;;;;;2.78;94.37;100705.41;1723622;83;27343;-66
2022/12/28 10:14:35;;;;;;;13.43;8.05;;;;;;;2.79;94.02;100709.67;1723632;83;25648;-67
2022/12/28 10:17:02;;;;;;;20.43;8.50;;;;;;;2.80;94.39;100692.06;1724273;83;25904;-64
2022/12/28 10:19:29;;;;;;;18.57;8.90;;;;;;;2.88;94.27;100693.52;1727118;82;26240;-65
2022/12/28 10:22:07;;;;;;;15.32;7.78;;;;;;;2.97;94.46;100685.88;1727150;82;25218;-63
2022/12/28 10:24:35;;;;;;;16.70;8.28;;;;;;;3.09;94.01;100681.73;1725942;83;27344;-63
2022/12/28 10:27:07;;;;;;;13.98;7.75;;;;;;;3.16;93.99;100673.79;1726992;82;25572;-64
2022/12/28 10:29:35;;;;;;;15.50;7.17;;;;;;;3.33;94.61;100676.39;1695243;83;25666;-64
2022/12/28 10:32:07;;;;;;;16.55;8.53;;;;;;;3.49;94.40;100683.23;1726997;83;25670;-65
2022/12/28 10:34:36;;;;;;;17.27;8.03;;;;;;;3.57;93.26;100676.09;1727204;83;25578;-66
2022/12/28 10:37:15;;;;;;;16.97;8.70;;;;;;;3.64;93.13;100668.67;1727022;82;27835;-65
2022/12/28 10:40:13;;;;;;;16.10;8.30;;;;;;;3.74;92.89;100667.97;1727203;82;25405;-66
2022/12/28 10:42:45;;;;;;;19.45;7.92;;;;;;;3.81;91.01;100645.81;1698618;83;25500;-64
2022/12/28 10:45:27;;;;;;;14.95;7.50;;;;;;;3.91;90.76;100649.11;1725714;83;25579;-65
2022/12/28 10:47:56;;;;;;;13.78;6.97;;;;;;;3.99;91.51;100646.51;1723954;83;25575;-66
2022/12/28 10:50:57;;;;;;;17.62;7.85;;;;;;;4.11;91.67;100644.45;1695409;83;27260;-64
2022/12/28 10:53:35;;;;;;;15.60;8.15;;;;;;;4.21;91.43;100638.37;1726953;83;25575;-65
2022/12/28 10:56:30;;;;;;;15.30;8.60;;;;;;;4.29;90.51;100640.54;1727157;83;25631;-66
2022/12/28 10:59:16;;;;;;;16.45;8.93;;;;;;;4.27;89.48;100629.28;1727123;83;25210;-65
2022/12/28 11:01:44;;;;;;;12.70;7.22;;;;;;;4.24;89.08;100621.25;1680865;84;25817;-65
2022/12/28 11:04:24;;;;;;;13.03;6.83;;;;;;;4.17;87.96;100620.67;1680715;85;27334;-64
2022/12/28 11:06:55;;;;;;;16.37;6.83;;;;;;;4.12;88.15;100608.59;1680718;85;25517;-65
2022/12/28 11:09:30;;;;;;;11.53;7.75;;;;;;;4.03;88.29;100606.91;1680827;85;25613;-67
2022/12/28 11:12:25;;;;;;;15.15;6.90;;;;;;;3.99;88.04;100603.14;1680790;85;25649;-65
2022/12/28 11:14:55;;;;;;;17.00;7.25;;;;;;;3.91;86.06;100599.59;1680843;85;25517;-65
2022/12/28 11:17:30;;;;;;;14.30;7.78;;;;;;;3.80;87.29;100589.36;1678618;84;27428;-65
2022/12/28 11:20:17;;;;;;;14.10;6.83;;;;;;;3.74;86.67;100587.70;1677407;85;25673;-65
2022/12/28 11:22:47;;;;;;;12.00;6.65;;;;;;;3.65;86.28;100582.02;1677554;85;25706;-64
2022/12/28 11:25:21;;;;;;;17.25;7.40;;;;;;;3.57;86.50;100574.98;1677697;85;32414;-64
2022/12/28 11:27:49;;;;;;;12.33;6.78;;;;;;;3.50;86.80;100577.34;1677766;85;25515;-64
2022/12/28 11:30:19;;;;;;;15.95;8.38;;;;;;;3.44;86.85;100573.02;1677549;85;27657;-62
2022/12/28 11:32:56;;;;;;;12.50;6.90;;;;;;;3.40;86.38;100580.46;1677550;85;25754;-63
2022/12/28 11:35:28;;;;;;;14.23;7.35;;;;;;;3.33;86.83;100578.79;1677545;85;25674;-64
2022/12/28 11:38:01;;;;;;;23.47;7.50;;;;;;;3.31;87.17;100575.56;1685584;82;25482;-63
2022/12/28 11:40:46;;;;;;;11.73;6.67;;;;;;;3.27;87.22;100570.46;1700857;84;25549;-62
2022/12/28 11:43:53;;;;;;;15.18;6.28;;;;;;;3.23;87.25;100569.34;1642189;87;27570;-63
2022/12/28 11:46:25;;;;;;;13.78;7.22;;;;;;;3.15;86.49;100542.55;1642118;87;25742;-61
2022/12/28 11:49:02;;;;;;;15.05;7.05;;;;;;;3.10;87.22;100545.17;1642291;87;25685;-61
2022/12/28 11:51:35;;;;;;;15.68;7.42;;;;;;;3.06;87.22;100547.26;1642330;87;25747;-59
2022/12/28 11:54:06;;;;;;;14.85;6.70;;;;;;;3.04;87.08;100552.05;1642365;87;25544;-59
2022/12/28 11:56:53;;;;;;;18.98;7.97;;;;;;;3.02;87.69;100553.64;1636387;87;27958;-62
2022/12/28 11:59:24;;;;;;;15.15;8.18;;;;;;;3.02;87.64;100546.16;1642250;87;25697;-61
2022/12/28 12:02:03;;;;;;;18.65;8.13;;;;;;;3.04;88.20;100551.52;1642298;87;25648;-59
2022/12/28 12:04:36;;;;;;;18.62;8.23;;;;;;;3.06;88.33;100544.59;1642402;87;25552;-59
2022/12/28 12:07:07;;;;;;;18.87;8.20;;;;;;;3.07;88.48;100534.19;1642350;87;25653;-59
2022/12/28 12:09:39;;;;;;;15.23;7.55;;;;;;;3.09;87.60;100530.72;1640844;87;27871;-61
2022/12/28 12:15:27;;;;;;;15.65;7.67;;;;;;;3.11;88.28;100517.37;1586937;90;25556;-61
2022/12/28 12:18:03;;;;;;;19.60;8.93;;;;;;;3.16;88.28;100513.94;1586932;90;25313;-59
2022/12/28 12:20:52;;;;;;;14.38;8.45;;;;;;;3.18;88.27;100504.63;1628463;87;25709;-55
2022/12/28 12:23:42;;;;;;;15.32;7.70;;;;;;;3.21;87.96;100497.95;1645236;87;27483;-57